Vilanova de Sau





Hora UTC 06:00
Temperatura 12.1 ºC
Humedad 97.2 %
Presión 1024.8 hPa
Pluja 0.0 mm
Velocidad viento 0.0 km/h
Dirección viento NNE
Radiación solar 1.5 W/m²
Fuel -178.4 %

Datos diarios 2021-10-19



Hora UTC (invierno +1h; verano +2h)
Temperatura (ºC) Humedad (%) Presión (hPa) Velocidad viento (km/h) Precipitación (mm) Fuel (%) Radiación solar (W/m²)
Hora UTC Aire Humedad Presión Vel. Dir. Vel. Max Dir. Intent. máx 5 min. Fuel Rad. Sol.
00:05 14.4 94.3 1024.8 0.0 NNE 0.0 NNE 0.0 -177.9 0.0
00:10 14.4 94.3 1024.9 0.0 NNE 0.0 NNE 0.0 -177.9 0.0
00:15 14.4 94.3 1024.9 0.0 NNE 0.0 NNE 0.0 -177.9 0.0
00:20 14.4 94.4 1024.9 0.0 NNE 0.0 NNE 0.0 -177.9 0.0
00:25 14.3 94.5 1024.9 0.0 NNE 0.0 NNE 0.0 -177.9 0.0
00:30 14.3 94.5 1024.9 0.0 NNE 0.0 NNE 0.0 -177.8 0.0
00:35 14.2 94.5 1024.8 0.0 NNE 0.0 SSE 0.0 -177.9 0.0
00:40 14.1 94.7 1024.8 0.0 NNE 0.0 WNW 0.0 -177.9 0.0
00:45 13.9 94.9 1024.9 0.0 NNE 0.0 WNW 0.0 -177.9 0.0
00:50 13.9 95.4 1024.9 0.0 NNE 0.0 NNW 0.0 -178.0 0.0
00:55 13.7 95.5 1024.9 0.0 NNE 0.0 WSW 0.0 -178.0 0.0
01:00 13.7 95.6 1024.9 0.0 NNE 0.0 WSW 0.0 -178.0 0.0
01:05 13.6 95.7 1024.9 0.0 NNE 0.0 WSW 0.0 -178.0 0.0
01:10 13.6 95.9 1024.9 0.0 NNE 0.0 WSW 0.0 -178.0 0.0
01:15 13.6 96.1 1025.0 0.2 WSW 3.4 WSW 0.0 -178.0 0.0
01:20 13.6 96.3 1024.9 0.0 NNE 0.0 SW 0.0 -178.0 0.0
01:25 13.6 96.4 1024.9 0.0 NNE 0.0 SW 0.0 -178.0 0.0
01:30 13.5 96.4 1024.9 0.0 NNE 0.0 SW 0.0 -178.0 0.0
01:35 13.5 96.5 1024.8 0.0 NNE 0.0 WSW 0.0 -178.1 0.0
01:40 13.4 96.7 1024.8 0.0 NNE 0.0 WSW 0.0 -178.1 0.0
01:45 13.4 96.8 1024.8 0.0 NNE 0.0 WSW 0.0 -178.2 0.0
01:50 13.3 96.9 1024.8 0.0 NNE 0.0 WSW 0.0 -178.2 0.0
01:55 13.3 96.9 1024.8 0.0 NNE 0.0 WSW 0.0 -178.2 0.0
02:00 13.2 97.0 1024.8 0.0 NNE 0.0 NNE 0.0 -178.2 0.0
02:05 13.1 97.0 1024.8 0.0 NNE 0.0 NNE 0.0 -178.2 0.0
02:10 13.1 97.2 1024.8 0.0 NNE 0.0 NNE 0.0 -178.2 0.0
02:15 13.1 97.4 1024.7 0.0 NNE 0.0 WSW 0.0 -178.2 0.0
02:20 13.2 97.5 1024.7 0.0 NNE 0.0 SE 0.0 -178.2 0.0
02:25 13.2 97.5 1024.7 0.0 NNE 0.0 E 0.0 -178.2 0.0
02:30 13.1 97.4 1024.7 0.0 NNE 0.0 E 0.0 -178.2 0.0
02:35 12.9 97.2 1024.7 0.0 NNE 0.0 ENE 0.0 -178.2 0.0
02:40 12.8 97.3 1024.6 0.0 NNE 0.0 ENE 0.0 -178.2 0.0
02:45 12.8 97.3 1024.6 0.0 NNE 0.0 SSE 0.0 -178.2 0.0
02:50 12.6 97.2 1024.6 0.0 NNE 0.0 SSE 0.0 -178.2 0.0
02:55 12.6 97.3 1024.6 0.0 WSW 3.4 WSW 0.0 -178.2 0.0
03:00 12.9 98.1 1024.6 0.9 WSW 8.8 WSW 0.0 -178.3 0.0
03:05 13.4 98.3 1024.5 0.2 SW 8.8 SSW 0.0 -178.3 0.0
03:10 13.7 98.4 1024.5 0.0 NNE 0.0 WSW 0.0 -178.3 0.0
03:15 14.0 98.5 1024.5 0.2 W 8.8 W 0.0 -178.3 0.0
03:20 14.2 98.2 1024.5 0.9 WSW 6.1 SW 0.0 -178.2 0.0
03:25 14.3 97.5 1024.5 0.0 NNE 0.0 WSW 0.0 -178.2 0.0
03:30 14.3 96.9 1024.5 2.5 SW 11.5 WSW 0.0 -178.2 0.0
03:35 14.6 95.9 1024.5 7.0 WSW 14.2 W 0.0 -178.2 0.0
03:40 14.7 94.3 1024.6 6.2 WSW 11.5 SW 0.0 -178.2 0.0
03:45 14.7 93.7 1024.5 7.0 WSW 14.2 WSW 0.0 -178.2 0.0
03:50 14.8 92.9 1024.5 6.1 WSW 11.5 W 0.0 -178.2 0.0
03:55 14.9 92.1 1024.5 7.0 WSW 11.5 WSW 0.0 -178.1 0.0
04:00 14.9 92.0 1024.5 6.3 WSW 14.2 W 0.0 -178.1 0.0
04:05 14.8 91.8 1024.5 6.6 WSW 11.5 SSW 0.0 -178.1 0.0
04:10 14.8 91.9 1024.6 8.6 WSW 16.9 SW 0.0 -178.1 0.0
04:15 14.9 91.3 1024.6 7.7 WSW 16.9 WSW 0.0 -178.1 0.0
04:20 14.9 91.1 1024.6 5.7 WSW 11.5 W 0.0 -178.1 0.0
04:25 14.9 91.0 1024.6 4.6 WSW 8.8 SW 0.0 -178.1 0.0
04:30 14.8 91.1 1024.6 5.6 WSW 11.5 SW 0.0 -178.1 0.0
04:35 14.9 90.9 1024.6 3.4 WSW 8.8 WSW 0.0 -178.1 0.0
04:40 14.7 90.3 1024.6 0.9 WNW 6.1 WSW 0.0 -178.1 0.0
04:45 14.5 90.8 1024.6 0.3 SW 3.4 WSW 0.0 -178.1 0.0
04:50 14.1 91.6 1024.6 1.1 ENE 3.4 NNE 0.0 -178.1 0.0
04:55 13.7 92.8 1024.6 0.0 NNE 0.0 ENE 0.0 -178.1 0.0
05:00 13.5 93.1 1024.7 0.0 NNE 0.0 ENE 0.0 -178.1 0.0
05:05 13.4 93.6 1024.7 0.0 NNE 0.0 ENE 0.0 -178.1 0.0
05:10 13.2 94.2 1024.7 0.0 NNE 0.0 ENE 0.0 -178.1 0.0
05:15 13.0 94.8 1024.6 0.0 NNE 0.0 ENE 0.0 -178.2 0.0
05:20 12.9 95.4 1024.6 0.0 NNE 0.0 ENE 0.0 -178.2 0.0
05:25 12.8 95.6 1024.7 0.0 NNE 0.0 NNW 0.0 -178.2 0.0
05:30 12.6 95.9 1024.7 0.0 NNE 0.0 NNW 0.0 -178.2 0.0
05:35 12.5 96.2 1024.7 0.0 NNE 0.0 NNW 0.0 -178.3 0.0
05:40 12.4 96.4 1024.7 0.0 NNE 0.0 SW 0.0 -178.3 0.0
05:45 12.4 96.8 1024.7 0.0 NNE 0.0 SW 0.0 -178.3 0.0
05:50 12.3 97.0 1024.8 0.0 NNE 0.0 SW 0.0 -178.3 0.1
05:55 12.2 97.1 1024.8 0.0 NNE 0.0 SW 0.0 -178.4 0.5
06:00 12.1 97.2 1024.8 0.0 NNE 0.0 SW 0.0 -178.4 1.5
Máxima 14.9 98.5 1025.0 8.6 WSW 16.9 WSW 0.0 -177.8 1.5
Mínima 12.0 90.3 1024.5 -178.4
Total 0.0